createdAt,value
2018-06-19T00:01:53.670Z,74.70
2018-06-19T00:04:22.746Z,74.80
2018-06-19T00:06:51.971Z,75.10
2018-06-19T00:09:21.060Z,75.20
2018-06-19T00:11:50.135Z,75.50
2018-06-19T00:14:19.201Z,75.30
2018-06-19T00:16:48.367Z,75.70
2018-06-19T00:19:17.478Z,76.10
2018-06-19T00:21:49.917Z,77.40
2018-06-19T00:24:19.029Z,76.50
2018-06-19T00:26:48.087Z,76.50
2018-06-19T00:29:17.467Z,76.70
2018-06-19T00:31:46.512Z,76.90
2018-06-19T00:34:15.564Z,76.80
2018-06-19T00:36:44.653Z,77.30
2018-06-19T00:39:13.916Z,77.40
2018-06-19T00:44:12.202Z,77.20
2018-06-19T00:46:44.771Z,77.50
2018-06-19T00:49:14.207Z,77.60
2018-06-19T00:54:11.975Z,77.70
2018-06-19T00:56:54.863Z,77.30
2018-06-19T00:59:23.972Z,77.80
2018-06-19T01:01:53.980Z,78.10
2018-06-19T01:04:23.040Z,78.20
2018-06-19T01:06:52.208Z,79.20
2018-06-19T01:09:21.436Z,78.30
2018-06-19T01:11:50.534Z,79.40
2018-06-19T01:14:19.824Z,78.50
2018-06-19T01:16:48.904Z,78.20
2018-06-19T01:19:18.004Z,78.30
2018-06-19T01:21:47.094Z,78.40
2018-06-19T01:24:16.135Z,78.80
2018-06-19T01:26:45.228Z,78.50
2018-06-19T01:29:14.474Z,78.70
2018-06-19T01:31:43.526Z,78.80
2018-06-19T01:34:12.605Z,78.80
2018-06-19T01:36:41.638Z,78.70
2018-06-19T01:39:11.304Z,78.90
2018-06-19T01:41:40.364Z,79.00
2018-06-19T01:44:09.489Z,79.30
2018-06-19T01:46:38.541Z,79.10
2018-06-19T01:49:07.601Z,78.60
2018-06-19T01:51:36.680Z,78.80
2018-06-19T01:54:05.760Z,78.80
2018-06-19T01:56:34.951Z,78.50
2018-06-19T01:59:04.053Z,79.30
2018-06-19T02:01:34.147Z,79.80
2018-06-19T02:04:03.240Z,80.00
2018-06-19T02:06:32.376Z,79.90
2018-06-19T02:09:01.519Z,80.40
2018-06-19T02:11:30.644Z,80.50
2018-06-19T02:13:59.711Z,80.30
2018-06-19T02:16:28.772Z,80.00
2018-06-19T02:18:57.874Z,79.50
2018-06-19T02:21:26.987Z,79.00
2018-06-19T02:23:56.039Z,79.90
2018-06-19T02:26:25.796Z,80.70
2018-06-19T02:28:54.832Z,81.00
2018-06-19T02:31:26.928Z,80.50
2018-06-19T02:33:55.968Z,81.10
2018-06-19T02:36:25.064Z,82.50
2018-06-19T02:38:54.362Z,81.60
2018-06-19T02:41:23.440Z,81.70
2018-06-19T02:43:52.587Z,81.60
2018-06-19T02:46:21.745Z,82.20
2018-06-19T02:48:50.927Z,82.70
2018-06-19T02:51:20.691Z,83.10
2018-06-19T02:53:49.898Z,82.90
2018-06-19T02:56:18.912Z,83.10
2018-06-19T02:58:47.975Z,83.00
2018-06-19T03:01:17.067Z,83.40
2018-06-19T03:03:46.117Z,83.60
2018-06-19T03:06:15.191Z,83.80
2018-06-19T03:11:13.277Z,83.80
2018-06-19T03:13:42.366Z,84.80
2018-06-19T03:18:40.206Z,84.30
2018-06-19T03:21:09.281Z,83.90
2018-06-19T03:23:38.380Z,82.80
2018-06-19T03:26:07.454Z,83.60
2018-06-19T03:28:36.496Z,83.90
2018-06-19T03:31:05.569Z,84.00
2018-06-19T03:33:34.636Z,83.80
2018-06-19T03:36:03.776Z,83.50
2018-06-19T03:38:32.833Z,83.30
2018-06-19T03:41:01.940Z,82.80
2018-06-19T03:43:31.066Z,83.20
2018-06-19T03:46:00.100Z,83.50
2018-06-19T03:48:29.142Z,83.50
2018-06-19T03:50:58.312Z,83.30
2018-06-19T03:53:27.397Z,83.50
2018-06-19T03:55:56.472Z,84.00
2018-06-19T03:58:25.652Z,84.40
2018-06-19T04:00:54.768Z,84.00
2018-06-19T04:05:52.473Z,84.50
2018-06-19T04:08:21.528Z,83.50
2018-06-19T04:13:19.285Z,82.30
2018-06-19T04:15:48.364Z,82.00
2018-06-19T04:18:17.540Z,82.10
2018-06-19T04:20:46.615Z,82.80
2018-06-19T04:23:15.685Z,82.40
2018-06-19T04:28:14.228Z,82.80
2018-06-19T04:30:44.003Z,82.70
2018-06-19T04:35:41.926Z,83.40
2018-06-19T04:38:10.976Z,84.90
2018-06-19T04:40:40.029Z,84.50
2018-06-19T04:43:09.093Z,84.10
2018-06-19T04:45:38.252Z,84.40
2018-06-19T04:48:07.363Z,83.40
2018-06-19T04:50:36.452Z,83.90
2018-06-19T04:53:05.578Z,83.20
2018-06-19T04:55:34.648Z,83.70
2018-06-19T04:58:04.340Z,84.70
2018-06-19T05:00:33.452Z,85.00
2018-06-19T05:03:03.044Z,85.00
2018-06-19T05:05:32.115Z,84.20
2018-06-19T05:08:01.656Z,85.20
2018-06-19T05:10:30.736Z,84.40
2018-06-19T05:12:59.835Z,84.00
2018-06-19T05:15:28.914Z,85.20
2018-06-19T05:17:57.992Z,85.00
2018-06-19T05:20:27.236Z,85.80
2018-06-19T05:22:56.303Z,85.10
2018-06-19T05:25:25.406Z,85.60
2018-06-19T05:27:54.483Z,85.80
2018-06-19T05:30:23.761Z,85.20
2018-06-19T05:32:52.768Z,84.60
2018-06-19T05:35:21.797Z,84.60
2018-06-19T05:37:51.024Z,84.40
2018-06-19T05:40:20.081Z,84.50
2018-06-19T05:42:49.188Z,84.90
2018-06-19T05:45:18.340Z,85.80
2018-06-19T05:47:48.455Z,84.50
2018-06-19T05:50:17.532Z,84.40
2018-06-19T05:52:46.674Z,84.20
2018-06-19T05:55:15.693Z,83.50
2018-06-19T06:00:13.513Z,83.90
2018-06-19T06:02:42.557Z,83.60
2018-06-19T06:07:40.846Z,81.80
2018-06-19T06:10:10.149Z,81.50
2018-06-19T06:12:39.259Z,81.50
2018-06-19T06:15:08.309Z,81.00
2018-06-19T06:17:37.386Z,80.90
2018-06-19T06:20:07.088Z,80.40
2018-06-19T06:22:36.141Z,80.40
2018-06-19T06:25:05.331Z,79.10
2018-06-19T06:27:34.408Z,77.80
2018-06-19T06:30:03.780Z,78.50
2018-06-19T06:32:32.920Z,77.90
2018-06-19T06:35:01.994Z,78.00
2018-06-19T06:37:31.120Z,77.60
2018-06-19T06:40:00.415Z,77.10
2018-06-19T06:42:29.512Z,76.50
2018-06-19T06:47:27.292Z,75.60
2018-06-19T06:49:56.382Z,75.00
2018-06-19T06:54:54.268Z,76.00
2018-06-19T06:57:27.022Z,74.80
2018-06-19T06:59:56.103Z,75.70
2018-06-19T07:02:25.464Z,77.10
2018-06-19T07:04:55.412Z,76.10
2018-06-19T07:07:24.533Z,75.50
2018-06-19T07:09:53.610Z,75.10
2018-06-19T07:12:22.655Z,74.60
2018-06-19T07:17:20.532Z,74.00
2018-06-19T07:22:18.420Z,74.40
2018-06-19T07:24:47.745Z,74.80
2018-06-19T07:27:16.809Z,74.00
2018-06-19T07:32:14.573Z,73.20
2018-06-19T07:34:43.766Z,73.60
2018-06-19T07:37:12.861Z,72.80
2018-06-19T07:39:41.979Z,72.10
2018-06-19T07:42:11.071Z,71.30
2018-06-19T07:44:40.224Z,72.20
2018-06-19T07:47:09.296Z,72.60
2018-06-19T07:49:38.569Z,71.40
2018-06-19T07:52:07.626Z,70.90
2018-06-19T07:54:36.814Z,69.80
2018-06-19T07:57:05.883Z,69.20
2018-06-19T07:59:35.045Z,68.10
2018-06-19T08:04:33.956Z,68.40
2018-06-19T08:07:07.244Z,68.80
2018-06-19T08:09:36.730Z,67.90
2018-06-19T08:12:06.534Z,68.10
2018-06-19T08:14:35.841Z,67.80
2018-06-19T08:17:05.022Z,67.30
2018-06-19T08:19:34.052Z,66.00
2018-06-19T08:22:03.451Z,66.70
2018-06-19T08:24:32.799Z,65.90
2018-06-19T08:27:01.924Z,64.40
2018-06-19T08:29:30.980Z,64.30
2018-06-19T08:32:00.220Z,63.30
2018-06-19T08:34:29.299Z,62.60
2018-06-19T08:36:58.397Z,62.40
2018-06-19T08:39:27.444Z,64.40
2018-06-19T08:41:56.515Z,64.60
2018-06-19T08:44:25.612Z,65.30
2018-06-19T08:46:54.688Z,65.70
2018-06-19T08:49:23.744Z,64.30
2018-06-19T08:51:53.010Z,63.90
2018-06-19T08:54:22.351Z,64.30
2018-06-19T08:56:51.473Z,64.50
2018-06-19T08:59:20.521Z,64.90
2018-06-19T09:01:50.391Z,63.50
2018-06-19T09:04:19.626Z,63.40
2018-06-19T09:06:48.690Z,62.20
2018-06-19T09:09:18.089Z,62.50
2018-06-19T09:11:47.703Z,64.00
2018-06-19T09:14:16.812Z,63.70
2018-06-19T09:19:14.725Z,61.90
2018-06-19T09:21:44.156Z,61.50
2018-06-19T09:24:13.210Z,61.40
2018-06-19T09:26:42.298Z,62.00
2018-06-19T09:29:11.348Z,62.10
2018-06-19T09:31:40.537Z,61.80
2018-06-19T09:34:09.727Z,61.30
2018-06-19T09:36:39.037Z,60.50
2018-06-19T09:39:10.006Z,60.50
2018-06-19T09:41:39.296Z,60.60
2018-06-19T09:44:08.459Z,61.20
2018-06-19T09:46:37.572Z,62.00
2018-06-19T09:49:06.611Z,61.20
2018-06-19T09:51:36.188Z,61.70
2018-06-19T09:54:05.645Z,61.10
2018-06-19T09:56:34.773Z,59.70
2018-06-19T09:59:04.216Z,59.90
2018-06-19T10:01:33.318Z,57.50
2018-06-19T10:04:03.634Z,58.20
2018-06-19T10:06:32.697Z,59.20
2018-06-19T10:09:01.889Z,60.00
2018-06-19T10:11:30.974Z,59.00
2018-06-19T10:14:00.137Z,58.90
2018-06-19T10:16:29.200Z,59.50
2018-06-19T10:18:58.353Z,59.80
2018-06-19T10:21:27.408Z,59.70
2018-06-19T10:23:56.652Z,60.60
2018-06-19T10:26:25.702Z,60.30
2018-06-19T10:28:54.777Z,59.80
2018-06-19T10:31:23.831Z,58.90
2018-06-19T10:33:53.293Z,58.70
2018-06-19T10:36:23.082Z,58.10
2018-06-19T10:41:20.956Z,59.80
2018-06-19T10:43:50.041Z,60.00
2018-06-19T10:46:19.105Z,60.20
2018-06-19T10:48:48.193Z,60.30
2018-06-19T10:51:17.277Z,60.40
2018-06-19T10:53:46.698Z,61.20
2018-06-19T10:56:15.752Z,61.00
2018-06-19T10:58:44.995Z,61.50
2018-06-19T11:01:14.300Z,61.70
2018-06-19T11:03:44.038Z,61.40
2018-06-19T11:06:13.100Z,61.50
2018-06-19T11:08:42.343Z,61.10
2018-06-19T11:11:11.588Z,60.80
2018-06-19T11:13:40.654Z,61.10
2018-06-19T11:16:09.714Z,62.40
2018-06-19T11:18:38.796Z,62.20
2018-06-19T11:21:07.905Z,62.50
2018-06-19T11:23:37.067Z,62.20
2018-06-19T11:26:06.294Z,62.10
2018-06-19T11:28:35.344Z,62.40
2018-06-19T11:31:04.464Z,62.20
2018-06-19T11:33:33.589Z,62.00
2018-06-19T11:36:02.646Z,62.50
2018-06-19T11:38:31.929Z,62.40
2018-06-19T11:41:00.927Z,62.30
2018-06-19T11:43:30.839Z,62.40
2018-06-19T11:45:59.909Z,61.80
2018-06-19T11:48:28.948Z,61.80
2018-06-19T11:50:58.045Z,61.60
2018-06-19T11:53:27.261Z,61.10
2018-06-19T11:55:56.580Z,61.00
2018-06-19T11:58:25.638Z,61.50
2018-06-19T12:00:54.814Z,61.20
2018-06-19T12:03:23.911Z,60.80
2018-06-19T12:05:54.104Z,60.30
2018-06-19T12:08:23.149Z,60.00
2018-06-19T12:10:52.748Z,60.00
2018-06-19T12:13:21.820Z,59.80
2018-06-19T12:15:50.869Z,60.30
2018-06-19T12:18:20.260Z,60.30
2018-06-19T12:20:50.296Z,59.80
2018-06-19T12:23:19.593Z,59.50
2018-06-19T12:25:48.721Z,59.80
2018-06-19T12:28:18.014Z,60.80
2018-06-19T12:30:47.130Z,60.40
2018-06-19T12:33:16.402Z,60.60
2018-06-19T12:35:45.573Z,60.40
2018-06-19T12:38:14.672Z,61.00
2018-06-19T12:40:43.724Z,60.70
2018-06-19T12:43:12.845Z,60.00
2018-06-19T12:45:41.912Z,59.50
2018-06-19T12:48:10.980Z,59.20
2018-06-19T12:51:57.204Z,59.50
2018-06-19T12:54:43.276Z,59.00
2018-06-19T12:57:12.466Z,59.10
2018-06-19T12:59:41.468Z,58.80
2018-06-19T13:02:10.712Z,59.00
2018-06-19T13:04:51.120Z,59.10
2018-06-19T13:07:20.361Z,59.50
2018-06-19T13:09:49.437Z,59.00
2018-06-19T13:12:30.055Z,58.70
2018-06-19T13:14:59.679Z,58.70
2018-06-19T13:18:39.600Z,59.70
2018-06-19T13:21:08.682Z,59.10
2018-06-19T13:23:37.767Z,57.80
2018-06-19T13:26:06.827Z,59.00
2018-06-19T13:29:49.620Z,58.80
2018-06-19T13:32:18.776Z,58.60
2018-06-19T13:34:47.876Z,58.90
2018-06-19T13:37:17.341Z,58.90
2018-06-19T13:39:47.224Z,58.50
2018-06-19T13:42:40.808Z,57.70
2018-06-19T13:45:09.908Z,57.60
2018-06-19T13:47:38.999Z,57.90
2018-06-19T13:50:08.077Z,57.80
2018-06-19T13:52:37.203Z,57.50
2018-06-19T13:57:27.364Z,57.60
2018-06-19T13:59:56.876Z,56.90
2018-06-19T14:02:26.047Z,56.20
2018-06-19T14:04:55.244Z,56.60
2018-06-19T14:07:25.249Z,56.00
2018-06-19T14:10:05.897Z,55.60
2018-06-19T14:13:01.712Z,54.60
2018-06-19T14:15:34.944Z,55.20
2018-06-19T14:18:04.590Z,55.40
2018-06-19T14:20:33.763Z,56.10
2018-06-19T14:23:02.857Z,55.80
2018-06-19T14:25:31.914Z,56.20
2018-06-19T14:28:01.069Z,55.40
2018-06-19T14:30:30.427Z,54.90
2018-06-19T14:33:00.756Z,54.70
2018-06-19T14:35:30.640Z,54.50
2018-06-19T14:37:59.658Z,54.00
2018-06-19T14:40:28.889Z,53.80
2018-06-19T14:42:58.375Z,54.60
2018-06-19T14:45:27.470Z,53.00
2018-06-19T14:47:56.604Z,52.10
2018-06-19T14:50:25.668Z,53.10
2018-06-19T14:52:54.748Z,52.40
2018-06-19T14:55:24.064Z,52.30
2018-06-19T14:57:53.124Z,53.50
2018-06-19T15:00:22.348Z,52.60
2018-06-19T15:02:51.594Z,50.90
2018-06-19T15:05:20.725Z,46.90
2018-06-19T15:07:51.694Z,43.30
2018-06-19T15:10:20.842Z,42.60
2018-06-19T15:12:50.081Z,44.80
2018-06-19T15:15:19.102Z,47.10
2018-06-19T15:17:48.180Z,49.50
2018-06-19T15:20:17.380Z,50.90
2018-06-19T15:22:46.569Z,52.40
2018-06-19T15:25:15.649Z,52.80
2018-06-19T15:27:44.868Z,52.40
2018-06-19T15:30:15.305Z,52.10
2018-06-19T15:32:44.368Z,52.70
2018-06-19T15:35:13.981Z,52.40
2018-06-19T15:37:43.036Z,52.80
2018-06-19T15:40:12.248Z,53.60
2018-06-19T15:42:41.364Z,54.00
2018-06-19T15:45:10.460Z,54.50
2018-06-19T15:47:39.485Z,54.30
2018-06-19T15:50:08.684Z,50.00
2018-06-19T15:52:37.741Z,49.20
2018-06-19T15:57:35.474Z,51.50
2018-06-19T16:00:04.624Z,52.60
2018-06-19T16:02:33.708Z,53.40
2018-06-19T16:05:02.760Z,53.80
2018-06-19T16:07:31.828Z,54.60
2018-06-19T16:10:00.985Z,54.60
2018-06-19T16:12:30.023Z,54.70
2018-06-19T16:14:59.123Z,55.40
2018-06-19T16:17:28.521Z,55.90
2018-06-19T16:19:57.716Z,56.50
2018-06-19T16:22:26.962Z,56.20
2018-06-19T16:24:56.044Z,56.30
2018-06-19T16:27:25.214Z,56.30
2018-06-19T16:29:54.353Z,56.20
2018-06-19T16:32:23.767Z,56.30
2018-06-19T16:38:25.271Z,56.50
2018-06-19T16:40:54.352Z,56.50
2018-06-19T16:43:23.426Z,57.20
2018-06-19T16:45:52.573Z,57.40
2018-06-19T16:48:21.754Z,57.60
2018-06-19T16:50:50.971Z,57.70
2018-06-19T16:53:20.806Z,57.90
2018-06-19T16:55:49.880Z,58.20
2018-06-19T16:58:19.309Z,58.00
2018-06-19T17:00:48.457Z,57.50
2018-06-19T17:03:17.916Z,57.70
2018-06-19T17:05:47.157Z,57.70
2018-06-19T17:08:16.297Z,57.70
2018-06-19T17:10:45.694Z,57.10
2018-06-19T17:13:15.452Z,57.80
2018-06-19T17:15:44.639Z,58.00
2018-06-19T17:18:13.990Z,58.60
2018-06-19T17:20:43.180Z,58.30
2018-06-19T17:23:12.258Z,58.60
2018-06-19T17:25:41.541Z,58.40
2018-06-19T17:28:10.640Z,58.10
2018-06-19T17:30:39.874Z,57.80
2018-06-19T17:33:08.953Z,57.80
2018-06-19T17:35:38.075Z,58.00
2018-06-19T17:38:07.590Z,58.20
2018-06-19T17:40:36.860Z,58.80
2018-06-19T17:43:06.190Z,59.00
2018-06-19T17:45:35.254Z,59.30
2018-06-19T17:48:04.410Z,59.60
2018-06-19T17:50:33.701Z,59.70
2018-06-19T17:53:03.248Z,59.80
2018-06-19T17:55:33.396Z,60.10
2018-06-19T17:58:02.701Z,60.10
2018-06-19T18:00:31.869Z,60.50
2018-06-19T18:03:01.068Z,60.10
2018-06-19T18:05:30.237Z,60.60
2018-06-19T18:07:59.440Z,60.40
2018-06-19T18:10:28.844Z,60.20
2018-06-19T18:12:58.164Z,60.80
2018-06-19T18:15:33.834Z,60.40
2018-06-19T18:18:02.809Z,60.60
2018-06-19T18:20:31.920Z,59.80
2018-06-19T18:23:01.631Z,61.00
2018-06-19T18:25:30.721Z,61.50
2018-06-19T18:27:59.800Z,61.50
2018-06-19T18:30:30.456Z,61.70
2018-06-19T18:32:59.597Z,61.90
2018-06-19T18:35:28.789Z,61.50
2018-06-19T18:37:58.695Z,61.40
2018-06-19T18:40:27.984Z,61.60
2018-06-19T18:42:57.022Z,61.60
2018-06-19T18:45:26.159Z,61.90
2018-06-19T18:47:55.189Z,61.30
2018-06-19T18:50:24.286Z,61.40
2018-06-19T18:52:53.319Z,62.30
2018-06-19T18:55:22.779Z,62.70
2018-06-19T18:57:51.944Z,62.80
2018-06-19T19:00:21.258Z,62.70
2018-06-19T19:05:19.417Z,63.00
2018-06-19T19:07:48.572Z,63.10
2018-06-19T19:10:24.744Z,62.60
2018-06-19T19:12:54.010Z,62.70
2018-06-19T19:15:28.507Z,62.30
2018-06-19T19:18:03.044Z,62.60
2018-06-19T19:20:32.237Z,63.00
2018-06-19T19:23:01.354Z,62.30
2018-06-19T19:25:30.597Z,62.90
2018-06-19T19:28:05.329Z,62.80
2018-06-19T19:30:34.700Z,63.50
2018-06-19T19:33:03.866Z,64.00
2018-06-19T19:38:07.313Z,64.60
2018-06-19T19:40:36.485Z,64.80
2018-06-19T19:43:05.736Z,65.00
2018-06-19T19:45:35.232Z,65.10
2018-06-19T19:48:09.554Z,65.20
2018-06-19T19:50:38.803Z,65.20
2018-06-19T19:53:07.887Z,65.10
2018-06-19T19:55:41.272Z,65.40
2018-06-19T20:00:45.019Z,65.00
2018-06-19T20:03:14.145Z,65.30
2018-06-19T20:05:43.345Z,66.10
2018-06-19T20:08:16.658Z,66.00
2018-06-19T20:10:45.857Z,66.30
2018-06-19T20:13:15.198Z,66.20
2018-06-19T20:15:44.625Z,66.20
2018-06-19T20:18:13.812Z,66.20
2018-06-19T20:20:43.039Z,65.90
2018-06-19T20:23:12.283Z,66.20
2018-06-19T20:25:41.445Z,66.00
2018-06-19T20:28:10.601Z,66.20
2018-06-19T20:30:39.704Z,66.40
2018-06-19T20:33:08.932Z,66.60
2018-06-19T20:35:39.309Z,66.60
2018-06-19T20:38:08.609Z,66.70
2018-06-19T20:43:07.237Z,67.10
2018-06-19T20:45:36.352Z,67.10
2018-06-19T20:48:05.537Z,67.00
2018-06-19T20:50:34.614Z,67.30
2018-06-19T20:53:03.812Z,67.00
2018-06-19T20:55:33.037Z,67.30
2018-06-19T20:58:04.736Z,66.90
2018-06-19T21:00:35.917Z,66.90
2018-06-19T21:03:05.062Z,67.00
2018-06-19T21:05:34.333Z,66.60
2018-06-19T21:08:03.845Z,67.00
2018-06-19T21:10:35.711Z,67.00
2018-06-19T21:13:05.682Z,67.30
2018-06-19T21:15:35.667Z,67.20
2018-06-19T21:18:06.036Z,67.50
2018-06-19T21:20:46.016Z,67.50
2018-06-19T21:23:33.209Z,67.30
2018-06-19T21:26:02.487Z,67.60
2018-06-19T21:28:31.840Z,67.80
2018-06-19T21:31:00.924Z,67.80
2018-06-19T21:33:30.023Z,67.90
2018-06-19T21:35:59.427Z,68.00
2018-06-19T21:38:28.628Z,67.90
2018-06-19T21:40:57.680Z,67.80
2018-06-19T21:43:26.853Z,67.60
2018-06-19T21:45:55.927Z,68.00
2018-06-19T21:48:25.001Z,68.20
2018-06-19T21:50:54.088Z,68.00
2018-06-19T21:53:23.363Z,67.90
2018-06-19T21:55:52.464Z,68.00
2018-06-19T21:58:21.628Z,68.10
2018-06-19T22:00:50.727Z,67.90
2018-06-19T22:03:19.900Z,68.20
2018-06-19T22:05:49.147Z,68.40
2018-06-19T22:08:18.282Z,68.40
2018-06-19T22:10:47.345Z,68.50
2018-06-19T22:13:16.408Z,68.50
2018-06-19T22:15:45.667Z,68.70
2018-06-19T22:18:14.804Z,68.90
2018-06-19T22:20:43.917Z,69.00
2018-06-19T22:23:12.989Z,69.30
2018-06-19T22:25:42.436Z,69.30
2018-06-19T22:28:11.785Z,69.50
2018-06-19T22:30:40.974Z,69.50
2018-06-19T22:35:38.797Z,69.90
2018-06-19T22:38:07.984Z,69.80
2018-06-19T22:40:37.060Z,70.20
2018-06-19T22:43:06.194Z,70.40
2018-06-19T22:45:35.267Z,70.60
2018-06-19T22:48:04.332Z,71.00
2018-06-19T22:50:33.547Z,71.30
2018-06-19T22:53:02.654Z,71.50
2018-06-19T22:55:31.904Z,71.60
2018-06-19T22:58:01.162Z,72.00
2018-06-19T23:00:30.251Z,72.20
2018-06-19T23:03:05.460Z,72.80
2018-06-19T23:05:36.078Z,72.90
2018-06-19T23:08:05.460Z,74.00
2018-06-19T23:10:34.584Z,74.80
2018-06-19T23:13:03.680Z,73.50
2018-06-19T23:15:32.844Z,74.00
2018-06-19T23:18:01.896Z,74.00
2018-06-19T23:20:31.007Z,73.90
2018-06-19T23:23:00.081Z,73.80
2018-06-19T23:25:29.177Z,73.60
2018-06-19T23:27:58.292Z,73.50
2018-06-19T23:30:27.591Z,74.00
2018-06-19T23:32:56.697Z,74.00
2018-06-19T23:35:25.773Z,74.20
2018-06-19T23:37:55.089Z,74.50
2018-06-19T23:40:24.149Z,74.90
2018-06-19T23:42:53.243Z,75.10
2018-06-19T23:45:22.298Z,75.30
2018-06-19T23:47:51.391Z,75.50
2018-06-19T23:50:20.464Z,75.30
2018-06-19T23:52:49.571Z,74.90
2018-06-19T23:55:18.741Z,75.80
2018-06-19T23:57:47.841Z,75.70
